Freeburg, Pennsylvania
Current Conditions -  °F | °C
As of 3:53 PM on Thursday 20 Nov 2014 (Local Time) from KSEG Reporting Station
Few Clouds Few Clouds  
Wind Chill: 28°   Ceiling: Unl
Heat Index: 35°   Visibility: 10mi
Dew Point: 13°   Wind: 9mph
Humidity: 40%   Direction: 270°W
Pressure: 29.94"   Gusts: NA
Location:  40.76°N, 76.94°W
Report Text: KSEG 202053Z AUTO 27008KT 230V300 10SM FEW055 02/M11 A2994 RMK AO2 SLP143 T00171106 53008
Loading
Personal Weather Stations






























Interactive Weather Map New forecast layout! Learn more

10-Day Weather Forecast

Advertisements
Track Severe Weather on mobile